sensor_id;sensor_type;location;lat;lon;timestamp;temperature;humidity
20102;DHT22;10210;52.284;9.892;2023-06-26T00:01:17;27.20;99.90
20102;DHT22;10210;52.284;9.892;2023-06-26T00:03:46;27.10;99.90
20102;DHT22;10210;52.284;9.892;2023-06-26T00:06:12;27.00;99.90
20102;DHT22;10210;52.284;9.892;2023-06-26T00:08:39;27.00;99.90
20102;DHT22;10210;52.284;9.892;2023-06-26T00:11:04;26.90;99.90
20102;DHT22;10210;52.284;9.892;2023-06-26T00:13:30;26.90;99.90
20102;DHT22;10210;52.284;9.892;2023-06-26T00:15:56;26.90;99.90
20102;DHT22;10210;52.284;9.892;2023-06-26T00:18:21;26.90;99.90
20102;DHT22;10210;52.284;9.892;2023-06-26T00:20:48;26.80;99.90
20102;DHT22;10210;52.284;9.892;2023-06-26T00:23:16;26.80;99.90
20102;DHT22;10210;52.284;9.892;2023-06-26T00:25:43;26.80;99.90
20102;DHT22;10210;52.284;9.892;2023-06-26T00:28:09;26.70;99.90
20102;DHT22;10210;52.284;9.892;2023-06-26T00:30:35;26.70;99.90
20102;DHT22;10210;52.284;9.892;2023-06-26T00:33:01;26.60;99.90
20102;DHT22;10210;52.284;9.892;2023-06-26T00:35:27;26.70;99.90
20102;DHT22;10210;52.284;9.892;2023-06-26T00:37:52;26.60;99.90
20102;DHT22;10210;52.284;9.892;2023-06-26T00:40:18;26.60;99.90
20102;DHT22;10210;52.284;9.892;2023-06-26T00:42:44;26.50;99.90
20102;DHT22;10210;52.284;9.892;2023-06-26T00:45:10;26.50;99.90
20102;DHT22;10210;52.284;9.892;2023-06-26T00:47:36;26.50;99.90
20102;DHT22;10210;52.284;9.892;2023-06-26T00:50:02;26.50;99.90
20102;DHT22;10210;52.284;9.892;2023-06-26T00:52:30;26.40;99.90
20102;DHT22;10210;52.284;9.892;2023-06-26T00:54:57;26.40;99.90
20102;DHT22;10210;52.284;9.892;2023-06-26T00:57:23;26.40;99.90
20102;DHT22;10210;52.284;9.892;2023-06-26T00:59:50;26.40;99.90
20102;DHT22;10210;52.284;9.892;2023-06-26T01:02:16;26.40;99.90
20102;DHT22;10210;52.284;9.892;2023-06-26T01:04:54;26.40;99.90
20102;DHT22;10210;52.284;9.892;2023-06-26T01:07:21;26.40;99.90
20102;DHT22;10210;52.284;9.892;2023-06-26T01:09:48;26.40;99.90
20102;DHT22;10210;52.284;9.892;2023-06-26T01:12:15;26.40;99.90
20102;DHT22;10210;52.284;9.892;2023-06-26T01:14:41;26.30;99.90
20102;DHT22;10210;52.284;9.892;2023-06-26T01:17:08;26.30;99.90
20102;DHT22;10210;52.284;9.892;2023-06-26T01:19:37;26.20;99.90
20102;DHT22;10210;52.284;9.892;2023-06-26T01:22:31;26.20;99.90
20102;DHT22;10210;52.284;9.892;2023-06-26T01:25:15;26.10;99.90
20102;DHT22;10210;52.284;9.892;2023-06-26T01:27:49;26.10;99.90
20102;DHT22;10210;52.284;9.892;2023-06-26T01:30:16;26.00;99.90
20102;DHT22;10210;52.284;9.892;2023-06-26T01:32:44;26.00;99.90
20102;DHT22;10210;52.284;9.892;2023-06-26T01:35:11;26.00;99.90
20102;DHT22;10210;52.284;9.892;2023-06-26T01:37:37;26.00;99.90
20102;DHT22;10210;52.284;9.892;2023-06-26T01:40:03;26.00;99.90
20102;DHT22;10210;52.284;9.892;2023-06-26T01:42:33;26.00;99.90
20102;DHT22;10210;52.284;9.892;2023-06-26T01:45:04;25.90;99.90
20102;DHT22;10210;52.284;9.892;2023-06-26T01:47:37;25.90;99.90
20102;DHT22;10210;52.284;9.892;2023-06-26T01:50:17;25.90;99.90
20102;DHT22;10210;52.284;9.892;2023-06-26T01:52:57;25.80;99.90
20102;DHT22;10210;52.284;9.892;2023-06-26T01:55:37;25.80;99.90
20102;DHT22;10210;52.284;9.892;2023-06-26T01:58:08;25.80;99.90
20102;DHT22;10210;52.284;9.892;2023-06-26T02:00:35;25.80;99.90
20102;DHT22;10210;52.284;9.892;2023-06-26T02:03:02;25.80;99.90
20102;DHT22;10210;52.284;9.892;2023-06-26T02:05:28;25.70;99.90
20102;DHT22;10210;52.284;9.892;2023-06-26T02:07:56;25.70;99.90
20102;DHT22;10210;52.284;9.892;2023-06-26T02:10:21;25.70;99.90
20102;DHT22;10210;52.284;9.892;2023-06-26T02:12:47;25.60;99.90
20102;DHT22;10210;52.284;9.892;2023-06-26T02:15:13;25.70;99.90
20102;DHT22;10210;52.284;9.892;2023-06-26T02:17:39;25.60;99.90
20102;DHT22;10210;52.284;9.892;2023-06-26T02:20:05;25.60;99.90
20102;DHT22;10210;52.284;9.892;2023-06-26T02:22:31;25.50;99.90
20102;DHT22;10210;52.284;9.892;2023-06-26T02:24:57;25.50;99.90
20102;DHT22;10210;52.284;9.892;2023-06-26T02:27:22;25.40;99.90
20102;DHT22;10210;52.284;9.892;2023-06-26T02:29:48;25.40;99.90
20102;DHT22;10210;52.284;9.892;2023-06-26T02:32:14;25.40;99.90
20102;DHT22;10210;52.284;9.892;2023-06-26T02:34:40;25.40;99.90
20102;DHT22;10210;52.284;9.892;2023-06-26T02:37:05;25.40;99.90
20102;DHT22;10210;52.284;9.892;2023-06-26T02:39:33;25.40;99.90
20102;DHT22;10210;52.284;9.892;2023-06-26T02:42:00;25.30;99.90
20102;DHT22;10210;52.284;9.892;2023-06-26T02:44:25;25.30;99.90
20102;DHT22;10210;52.284;9.892;2023-06-26T02:46:51;25.30;99.90
20102;DHT22;10210;52.284;9.892;2023-06-26T02:49:17;25.30;99.90
20102;DHT22;10210;52.284;9.892;2023-06-26T02:51:42;25.20;99.90
20102;DHT22;10210;52.284;9.892;2023-06-26T02:54:08;25.30;99.90
20102;DHT22;10210;52.284;9.892;2023-06-26T02:56:34;25.20;99.90
20102;DHT22;10210;52.284;9.892;2023-06-26T02:58:59;25.20;99.90
20102;DHT22;10210;52.284;9.892;2023-06-26T03:01:25;25.20;99.90
20102;DHT22;10210;52.284;9.892;2023-06-26T03:03:51;25.20;99.90
20102;DHT22;10210;52.284;9.892;2023-06-26T03:06:18;25.20;99.90
20102;DHT22;10210;52.284;9.892;2023-06-26T03:08:43;25.20;99.90
20102;DHT22;10210;52.284;9.892;2023-06-26T03:11:09;25.10;99.90
20102;DHT22;10210;52.284;9.892;2023-06-26T03:13:36;25.10;99.90
20102;DHT22;10210;52.284;9.892;2023-06-26T03:16:02;25.10;99.90
20102;DHT22;10210;52.284;9.892;2023-06-26T03:18:29;25.10;99.90
20102;DHT22;10210;52.284;9.892;2023-06-26T03:20:57;25.10;99.90
20102;DHT22;10210;52.284;9.892;2023-06-26T03:23:23;25.10;99.90
20102;DHT22;10210;52.284;9.892;2023-06-26T03:25:50;25.10;99.90
20102;DHT22;10210;52.284;9.892;2023-06-26T03:28:16;25.10;99.90
20102;DHT22;10210;52.284;9.892;2023-06-26T03:30:42;25.10;99.90
20102;DHT22;10210;52.284;9.892;2023-06-26T03:33:07;25.00;99.90
20102;DHT22;10210;52.284;9.892;2023-06-26T03:35:33;25.10;99.90
20102;DHT22;10210;52.284;9.892;2023-06-26T03:37:59;25.10;99.90
20102;DHT22;10210;52.284;9.892;2023-06-26T03:40:26;25.00;99.90
20102;DHT22;10210;52.284;9.892;2023-06-26T03:42:52;25.00;99.90
20102;DHT22;10210;52.284;9.892;2023-06-26T03:45:18;25.00;99.90
20102;DHT22;10210;52.284;9.892;2023-06-26T03:47:44;25.00;99.90
20102;DHT22;10210;52.284;9.892;2023-06-26T03:50:17;25.00;99.90
20102;DHT22;10210;52.284;9.892;2023-06-26T03:52:43;25.00;99.90
20102;DHT22;10210;52.284;9.892;2023-06-26T03:55:08;25.00;99.90
20102;DHT22;10210;52.284;9.892;2023-06-26T03:57:34;25.00;99.90
20102;DHT22;10210;52.284;9.892;2023-06-26T04:00:00;25.00;99.90
20102;DHT22;10210;52.284;9.892;2023-06-26T04:02:26;25.00;99.90
20102;DHT22;10210;52.284;9.892;2023-06-26T04:04:51;25.00;99.90
20102;DHT22;10210;52.284;9.892;2023-06-26T04:07:18;25.00;99.90
20102;DHT22;10210;52.284;9.892;2023-06-26T04:09:44;25.10;99.90
20102;DHT22;10210;52.284;9.892;2023-06-26T04:12:10;25.10;99.90
20102;DHT22;10210;52.284;9.892;2023-06-26T04:14:35;25.10;99.90
20102;DHT22;10210;52.284;9.892;2023-06-26T04:17:01;25.00;99.90
20102;DHT22;10210;52.284;9.892;2023-06-26T04:19:28;25.10;99.90
20102;DHT22;10210;52.284;9.892;2023-06-26T04:21:55;25.10;99.90
20102;DHT22;10210;52.284;9.892;2023-06-26T04:24:21;25.10;99.90
20102;DHT22;10210;52.284;9.892;2023-06-26T04:26:46;25.00;99.90
20102;DHT22;10210;52.284;9.892;2023-06-26T04:29:12;25.00;99.90
20102;DHT22;10210;52.284;9.892;2023-06-26T04:31:38;25.00;99.90
20102;DHT22;10210;52.284;9.892;2023-06-26T04:34:05;25.00;99.90
20102;DHT22;10210;52.284;9.892;2023-06-26T04:36:30;24.90;99.90
20102;DHT22;10210;52.284;9.892;2023-06-26T04:38:58;24.90;99.90
20102;DHT22;10210;52.284;9.892;2023-06-26T04:41:24;24.90;99.90
20102;DHT22;10210;52.284;9.892;2023-06-26T04:43:50;24.90;99.90
20102;DHT22;10210;52.284;9.892;2023-06-26T04:46:15;24.90;99.90
20102;DHT22;10210;52.284;9.892;2023-06-26T04:48:41;25.00;99.90
20102;DHT22;10210;52.284;9.892;2023-06-26T04:51:08;25.00;99.90
20102;DHT22;10210;52.284;9.892;2023-06-26T04:53:33;25.00;99.90
20102;DHT22;10210;52.284;9.892;2023-06-26T04:55:59;25.00;99.90
20102;DHT22;10210;52.284;9.892;2023-06-26T04:58:24;25.10;99.90
20102;DHT22;10210;52.284;9.892;2023-06-26T05:00:50;25.10;99.90
20102;DHT22;10210;52.284;9.892;2023-06-26T05:03:16;25.10;99.90
20102;DHT22;10210;52.284;9.892;2023-06-26T05:05:43;25.10;99.90
20102;DHT22;10210;52.284;9.892;2023-06-26T05:08:22;25.20;99.90
20102;DHT22;10210;52.284;9.892;2023-06-26T05:10:49;25.20;99.90
20102;DHT22;10210;52.284;9.892;2023-06-26T05:13:15;25.30;99.90
20102;DHT22;10210;52.284;9.892;2023-06-26T05:15:44;25.30;99.90
20102;DHT22;10210;52.284;9.892;2023-06-26T05:18:10;25.30;99.90
20102;DHT22;10210;52.284;9.892;2023-06-26T05:20:36;25.30;99.90
20102;DHT22;10210;52.284;9.892;2023-06-26T05:23:03;25.40;99.90
20102;DHT22;10210;52.284;9.892;2023-06-26T05:25:29;25.40;99.90
20102;DHT22;10210;52.284;9.892;2023-06-26T05:27:59;25.40;99.90
20102;DHT22;10210;52.284;9.892;2023-06-26T05:30:26;25.40;99.90
20102;DHT22;10210;52.284;9.892;2023-06-26T05:32:53;25.50;99.90
20102;DHT22;10210;52.284;9.892;2023-06-26T05:35:20;25.50;99.90
20102;DHT22;10210;52.284;9.892;2023-06-26T05:37:49;25.50;99.90
20102;DHT22;10210;52.284;9.892;2023-06-26T05:40:16;25.50;99.90
20102;DHT22;10210;52.284;9.892;2023-06-26T05:42:45;25.50;99.90
20102;DHT22;10210;52.284;9.892;2023-06-26T05:45:11;25.60;99.90
20102;DHT22;10210;52.284;9.892;2023-06-26T05:47:37;25.60;99.90
20102;DHT22;10210;52.284;9.892;2023-06-26T05:50:03;25.70;99.90
20102;DHT22;10210;52.284;9.892;2023-06-26T05:52:30;25.70;99.90
20102;DHT22;10210;52.284;9.892;2023-06-26T05:54:56;25.70;99.90
20102;DHT22;10210;52.284;9.892;2023-06-26T05:57:28;25.80;99.90
20102;DHT22;10210;52.284;9.892;2023-06-26T05:59:55;25.80;99.90
20102;DHT22;10210;52.284;9.892;2023-06-26T06:02:22;25.80;99.90
20102;DHT22;10210;52.284;9.892;2023-06-26T06:04:48;25.90;99.90
20102;DHT22;10210;52.284;9.892;2023-06-26T06:07:14;25.90;99.90
20102;DHT22;10210;52.284;9.892;2023-06-26T06:09:40;26.00;99.90
20102;DHT22;10210;52.284;9.892;2023-06-26T06:12:07;26.10;99.90
20102;DHT22;10210;52.284;9.892;2023-06-26T06:14:33;26.20;99.90
20102;DHT22;10210;52.284;9.892;2023-06-26T06:17:00;26.20;99.90
20102;DHT22;10210;52.284;9.892;2023-06-26T06:19:26;26.20;99.90
20102;DHT22;10210;52.284;9.892;2023-06-26T06:21:52;26.30;99.90
20102;DHT22;10210;52.284;9.892;2023-06-26T06:24:18;26.40;99.90
20102;DHT22;10210;52.284;9.892;2023-06-26T06:26:45;26.50;99.90
20102;DHT22;10210;52.284;9.892;2023-06-26T06:29:11;26.50;99.90
20102;DHT22;10210;52.284;9.892;2023-06-26T06:31:37;26.60;99.90
20102;DHT22;10210;52.284;9.892;2023-06-26T06:34:02;26.60;99.90
20102;DHT22;10210;52.284;9.892;2023-06-26T06:36:28;26.70;99.90
20102;DHT22;10210;52.284;9.892;2023-06-26T06:38:54;26.70;99.90
20102;DHT22;10210;52.284;9.892;2023-06-26T06:41:20;26.80;99.90
20102;DHT22;10210;52.284;9.892;2023-06-26T06:43:46;26.90;99.90
20102;DHT22;10210;52.284;9.892;2023-06-26T06:46:12;27.00;99.90
20102;DHT22;10210;52.284;9.892;2023-06-26T06:48:37;27.00;99.90
20102;DHT22;10210;52.284;9.892;2023-06-26T06:51:03;27.10;99.90
20102;DHT22;10210;52.284;9.892;2023-06-26T06:53:29;27.10;99.90
20102;DHT22;10210;52.284;9.892;2023-06-26T06:55:55;27.20;99.90
20102;DHT22;10210;52.284;9.892;2023-06-26T06:58:21;27.20;99.90
20102;DHT22;10210;52.284;9.892;2023-06-26T07:00:48;27.30;99.90
20102;DHT22;10210;52.284;9.892;2023-06-26T07:03:14;27.40;99.90
20102;DHT22;10210;52.284;9.892;2023-06-26T07:05:43;27.50;99.90
20102;DHT22;10210;52.284;9.892;2023-06-26T07:08:09;27.80;99.90
20102;DHT22;10210;52.284;9.892;2023-06-26T07:10:35;28.10;99.90
20102;DHT22;10210;52.284;9.892;2023-06-26T07:13:00;28.50;99.90
20102;DHT22;10210;52.284;9.892;2023-06-26T07:15:26;28.80;99.90
20102;DHT22;10210;52.284;9.892;2023-06-26T07:17:52;29.30;99.90
20102;DHT22;10210;52.284;9.892;2023-06-26T07:20:17;29.70;99.90
20102;DHT22;10210;52.284;9.892;2023-06-26T07:22:43;30.00;99.90
20102;DHT22;10210;52.284;9.892;2023-06-26T07:25:10;30.30;99.90
20102;DHT22;10210;52.284;9.892;2023-06-26T07:27:40;30.70;99.90
20102;DHT22;10210;52.284;9.892;2023-06-26T07:30:07;31.00;99.90
20102;DHT22;10210;52.284;9.892;2023-06-26T07:32:37;31.30;99.90
20102;DHT22;10210;52.284;9.892;2023-06-26T07:35:05;31.60;99.90
20102;DHT22;10210;52.284;9.892;2023-06-26T07:37:31;31.80;99.90
20102;DHT22;10210;52.284;9.892;2023-06-26T07:39:57;32.00;99.90
20102;DHT22;10210;52.284;9.892;2023-06-26T07:42:22;32.20;99.90
20102;DHT22;10210;52.284;9.892;2023-06-26T07:44:48;32.40;99.90
20102;DHT22;10210;52.284;9.892;2023-06-26T07:47:15;32.60;99.90
20102;DHT22;10210;52.284;9.892;2023-06-26T07:49:41;32.80;99.90
20102;DHT22;10210;52.284;9.892;2023-06-26T07:52:07;32.90;99.90
20102;DHT22;10210;52.284;9.892;2023-06-26T07:54:35;33.00;99.90
20102;DHT22;10210;52.284;9.892;2023-06-26T07:57:03;33.10;99.90
20102;DHT22;10210;52.284;9.892;2023-06-26T07:59:34;33.20;99.90
20102;DHT22;10210;52.284;9.892;2023-06-26T08:02:00;33.40;99.90
20102;DHT22;10210;52.284;9.892;2023-06-26T08:04:28;33.50;99.90
20102;DHT22;10210;52.284;9.892;2023-06-26T08:07:02;33.60;99.90
20102;DHT22;10210;52.284;9.892;2023-06-26T08:09:31;33.60;99.90
20102;DHT22;10210;52.284;9.892;2023-06-26T08:11:57;33.70;99.90
20102;DHT22;10210;52.284;9.892;2023-06-26T08:14:23;33.70;99.90
20102;DHT22;10210;52.284;9.892;2023-06-26T08:16:50;33.70;99.90
20102;DHT22;10210;52.284;9.892;2023-06-26T08:19:17;33.70;99.90
20102;DHT22;10210;52.284;9.892;2023-06-26T08:21:44;33.80;99.90
20102;DHT22;10210;52.284;9.892;2023-06-26T08:24:12;33.80;99.90
20102;DHT22;10210;52.284;9.892;2023-06-26T08:26:38;33.90;99.90
20102;DHT22;10210;52.284;9.892;2023-06-26T08:29:04;34.00;99.90
20102;DHT22;10210;52.284;9.892;2023-06-26T08:31:37;34.10;99.90
20102;DHT22;10210;52.284;9.892;2023-06-26T08:34:04;34.10;99.90
20102;DHT22;10210;52.284;9.892;2023-06-26T08:36:31;34.20;99.90
20102;DHT22;10210;52.284;9.892;2023-06-26T08:39:01;34.30;99.90
20102;DHT22;10210;52.284;9.892;2023-06-26T08:41:27;34.30;99.90
20102;DHT22;10210;52.284;9.892;2023-06-26T08:43:53;34.30;99.90
20102;DHT22;10210;52.284;9.892;2023-06-26T08:46:19;34.40;99.90
20102;DHT22;10210;52.284;9.892;2023-06-26T08:48:49;34.50;99.90
20102;DHT22;10210;52.284;9.892;2023-06-26T08:51:22;34.50;99.90
20102;DHT22;10210;52.284;9.892;2023-06-26T08:56:35;34.60;99.90
20102;DHT22;10210;52.284;9.892;2023-06-26T08:59:07;34.60;99.90
20102;DHT22;10210;52.284;9.892;2023-06-26T09:01:36;34.60;99.90
20102;DHT22;10210;52.284;9.892;2023-06-26T09:04:03;34.70;99.90
20102;DHT22;10210;52.284;9.892;2023-06-26T09:06:29;34.60;99.90
20102;DHT22;10210;52.284;9.892;2023-06-26T09:08:55;34.60;99.90
20102;DHT22;10210;52.284;9.892;2023-06-26T09:11:21;34.70;99.90
20102;DHT22;10210;52.284;9.892;2023-06-26T09:13:48;34.60;99.90
20102;DHT22;10210;52.284;9.892;2023-06-26T09:16:14;34.50;99.90
20102;DHT22;10210;52.284;9.892;2023-06-26T09:18:41;34.40;99.90
20102;DHT22;10210;52.284;9.892;2023-06-26T09:21:10;34.40;99.90
20102;DHT22;10210;52.284;9.892;2023-06-26T09:23:37;34.30;99.90
20102;DHT22;10210;52.284;9.892;2023-06-26T09:26:06;34.20;99.90
20102;DHT22;10210;52.284;9.892;2023-06-26T09:28:35;34.20;99.90
20102;DHT22;10210;52.284;9.892;2023-06-26T09:31:05;34.20;99.90
20102;DHT22;10210;52.284;9.892;2023-06-26T09:33:35;34.10;99.90
20102;DHT22;10210;52.284;9.892;2023-06-26T09:36:05;34.20;99.90
20102;DHT22;10210;52.284;9.892;2023-06-26T09:38:37;34.20;99.90
20102;DHT22;10210;52.284;9.892;2023-06-26T09:41:03;34.20;99.90
20102;DHT22;10210;52.284;9.892;2023-06-26T09:43:29;34.10;99.90
20102;DHT22;10210;52.284;9.892;2023-06-26T09:45:56;34.00;99.90
20102;DHT22;10210;52.284;9.892;2023-06-26T09:48:22;33.80;99.90
20102;DHT22;10210;52.284;9.892;2023-06-26T09:50:48;33.80;99.90
20102;DHT22;10210;52.284;9.892;2023-06-26T09:53:15;33.60;99.90
20102;DHT22;10210;52.284;9.892;2023-06-26T09:55:43;33.50;99.90
20102;DHT22;10210;52.284;9.892;2023-06-26T09:58:13;33.30;99.90
20102;DHT22;10210;52.284;9.892;2023-06-26T10:00:43;33.20;99.90
20102;DHT22;10210;52.284;9.892;2023-06-26T10:03:10;33.00;99.90
20102;DHT22;10210;52.284;9.892;2023-06-26T10:05:38;32.80;99.90
20102;DHT22;10210;52.284;9.892;2023-06-26T10:08:05;32.60;99.90
20102;DHT22;10210;52.284;9.892;2023-06-26T10:10:33;32.40;99.90
20102;DHT22;10210;52.284;9.892;2023-06-26T10:13:11;32.10;99.90
20102;DHT22;10210;52.284;9.892;2023-06-26T10:15:44;31.90;99.90
20102;DHT22;10210;52.284;9.892;2023-06-26T10:18:12;31.70;99.90
20102;DHT22;10210;52.284;9.892;2023-06-26T10:20:44;31.50;99.90
20102;DHT22;10210;52.284;9.892;2023-06-26T10:23:14;31.40;99.90
20102;DHT22;10210;52.284;9.892;2023-06-26T10:25:44;31.30;99.90
20102;DHT22;10210;52.284;9.892;2023-06-26T10:28:14;31.30;99.90
20102;DHT22;10210;52.284;9.892;2023-06-26T10:30:43;31.20;99.90
20102;DHT22;10210;52.284;9.892;2023-06-26T10:33:12;31.10;99.90
20102;DHT22;10210;52.284;9.892;2023-06-26T10:35:46;31.00;99.90
20102;DHT22;10210;52.284;9.892;2023-06-26T10:38:12;30.80;99.90
20102;DHT22;10210;52.284;9.892;2023-06-26T10:40:46;30.70;99.90
20102;DHT22;10210;52.284;9.892;2023-06-26T10:43:14;30.60;99.90
20102;DHT22;10210;52.284;9.892;2023-06-26T10:45:48;30.50;99.90
20102;DHT22;10210;52.284;9.892;2023-06-26T10:48:17;30.40;99.90
20102;DHT22;10210;52.284;9.892;2023-06-26T10:50:47;30.30;99.90
20102;DHT22;10210;52.284;9.892;2023-06-26T10:55:57;29.70;99.90
20102;DHT22;10210;52.284;9.892;2023-06-26T11:04:08;28.80;99.90
20102;DHT22;10210;52.284;9.892;2023-06-26T11:06:37;28.60;99.90
20102;DHT22;10210;52.284;9.892;2023-06-26T11:14:25;28.20;99.90
20102;DHT22;10210;52.284;9.892;2023-06-26T11:16:58;28.20;99.90
20102;DHT22;10210;52.284;9.892;2023-06-26T11:19:27;28.20;99.90
20102;DHT22;10210;52.284;9.892;2023-06-26T11:21:58;28.20;99.90
20102;DHT22;10210;52.284;9.892;2023-06-26T11:24:26;28.20;99.90
20102;DHT22;10210;52.284;9.892;2023-06-26T11:26:53;28.20;99.90
20102;DHT22;10210;52.284;9.892;2023-06-26T11:29:20;28.20;99.90
20102;DHT22;10210;52.284;9.892;2023-06-26T11:31:46;28.20;99.90
20102;DHT22;10210;52.284;9.892;2023-06-26T11:34:13;28.30;99.90
20102;DHT22;10210;52.284;9.892;2023-06-26T11:36:42;28.40;99.90
20102;DHT22;10210;52.284;9.892;2023-06-26T11:39:10;28.40;99.90
20102;DHT22;10210;52.284;9.892;2023-06-26T11:41:37;28.40;99.90
20102;DHT22;10210;52.284;9.892;2023-06-26T11:44:08;28.40;99.90
20102;DHT22;10210;52.284;9.892;2023-06-26T11:46:36;28.40;99.90
20102;DHT22;10210;52.284;9.892;2023-06-26T11:49:04;28.40;99.90
20102;DHT22;10210;52.284;9.892;2023-06-26T11:51:30;28.40;99.90
20102;DHT22;10210;52.284;9.892;2023-06-26T11:53:56;28.50;99.90
20102;DHT22;10210;52.284;9.892;2023-06-26T11:56:22;28.50;99.90
20102;DHT22;10210;52.284;9.892;2023-06-26T11:59:02;28.50;99.90
20102;DHT22;10210;52.284;9.892;2023-06-26T12:01:34;28.60;99.90
20102;DHT22;10210;52.284;9.892;2023-06-26T12:04:07;28.70;99.90
20102;DHT22;10210;52.284;9.892;2023-06-26T12:06:36;28.90;99.90
20102;DHT22;10210;52.284;9.892;2023-06-26T12:09:11;29.00;99.90
20102;DHT22;10210;52.284;9.892;2023-06-26T12:11:43;29.10;99.90
20102;DHT22;10210;52.284;9.892;2023-06-26T12:14:13;29.20;99.90
20102;DHT22;10210;52.284;9.892;2023-06-26T12:16:39;29.20;99.90
20102;DHT22;10210;52.284;9.892;2023-06-26T12:19:07;29.10;99.90
20102;DHT22;10210;52.284;9.892;2023-06-26T12:24:02;29.00;99.90
20102;DHT22;10210;52.284;9.892;2023-06-26T12:26:32;28.90;99.90
20102;DHT22;10210;52.284;9.892;2023-06-26T12:29:06;28.80;99.90
20102;DHT22;10210;52.284;9.892;2023-06-26T12:31:34;28.80;99.90
20102;DHT22;10210;52.284;9.892;2023-06-26T12:34:01;28.80;99.90
20102;DHT22;10210;52.284;9.892;2023-06-26T12:36:49;28.80;99.90
20102;DHT22;10210;52.284;9.892;2023-06-26T12:39:17;28.90;99.90
20102;DHT22;10210;52.284;9.892;2023-06-26T12:41:55;28.90;99.90
20102;DHT22;10210;52.284;9.892;2023-06-26T12:44:27;29.00;99.90
20102;DHT22;10210;52.284;9.892;2023-06-26T12:46:57;29.10;99.90
20102;DHT22;10210;52.284;9.892;2023-06-26T12:49:37;29.10;99.90
20102;DHT22;10210;52.284;9.892;2023-06-26T12:52:14;29.20;99.90
20102;DHT22;10210;52.284;9.892;2023-06-26T12:54:44;29.20;99.90
20102;DHT22;10210;52.284;9.892;2023-06-26T12:57:10;29.20;99.90
20102;DHT22;10210;52.284;9.892;2023-06-26T12:59:37;29.20;99.90
20102;DHT22;10210;52.284;9.892;2023-06-26T13:02:04;29.20;99.90
20102;DHT22;10210;52.284;9.892;2023-06-26T13:04:30;29.20;99.90
20102;DHT22;10210;52.284;9.892;2023-06-26T13:06:56;29.20;99.90
20102;DHT22;10210;52.284;9.892;2023-06-26T13:09:23;29.20;99.90
20102;DHT22;10210;52.284;9.892;2023-06-26T13:11:50;29.30;99.90
20102;DHT22;10210;52.284;9.892;2023-06-26T13:14:16;29.30;99.90
20102;DHT22;10210;52.284;9.892;2023-06-26T13:16:42;29.30;99.90
20102;DHT22;10210;52.284;9.892;2023-06-26T13:19:08;29.40;99.90
20102;DHT22;10210;52.284;9.892;2023-06-26T13:21:34;29.50;99.90
20102;DHT22;10210;52.284;9.892;2023-06-26T13:24:00;29.50;99.90
20102;DHT22;10210;52.284;9.892;2023-06-26T13:26:27;29.50;99.90
20102;DHT22;10210;52.284;9.892;2023-06-26T13:28:54;29.60;99.90
20102;DHT22;10210;52.284;9.892;2023-06-26T13:31:20;29.60;99.90
20102;DHT22;10210;52.284;9.892;2023-06-26T13:33:47;29.70;99.90
20102;DHT22;10210;52.284;9.892;2023-06-26T13:36:18;29.70;99.90
20102;DHT22;10210;52.284;9.892;2023-06-26T13:38:45;29.70;99.90
20102;DHT22;10210;52.284;9.892;2023-06-26T13:41:12;29.80;99.90
20102;DHT22;10210;52.284;9.892;2023-06-26T13:43:38;29.80;99.90
20102;DHT22;10210;52.284;9.892;2023-06-26T13:46:03;29.80;99.90
20102;DHT22;10210;52.284;9.892;2023-06-26T13:48:29;29.70;99.90
20102;DHT22;10210;52.284;9.892;2023-06-26T13:50:56;29.70;99.90
20102;DHT22;10210;52.284;9.892;2023-06-26T13:53:22;29.70;99.90
20102;DHT22;10210;52.284;9.892;2023-06-26T13:55:48;29.60;99.90
20102;DHT22;10210;52.284;9.892;2023-06-26T13:58:14;29.60;99.90
20102;DHT22;10210;52.284;9.892;2023-06-26T14:00:40;29.60;99.90
20102;DHT22;10210;52.284;9.892;2023-06-26T14:03:06;29.60;99.90
20102;DHT22;10210;52.284;9.892;2023-06-26T14:05:33;29.70;99.90
20102;DHT22;10210;52.284;9.892;2023-06-26T14:08:02;29.60;99.90
20102;DHT22;10210;52.284;9.892;2023-06-26T14:10:29;29.60;99.90
20102;DHT22;10210;52.284;9.892;2023-06-26T14:12:56;29.60;99.90
20102;DHT22;10210;52.284;9.892;2023-06-26T14:15:21;29.70;99.90
20102;DHT22;10210;52.284;9.892;2023-06-26T14:17:47;29.80;99.90
20102;DHT22;10210;52.284;9.892;2023-06-26T14:20:15;29.90;99.90
20102;DHT22;10210;52.284;9.892;2023-06-26T14:22:42;29.90;99.90
20102;DHT22;10210;52.284;9.892;2023-06-26T14:25:10;30.00;99.90
20102;DHT22;10210;52.284;9.892;2023-06-26T14:27:37;30.00;99.90
20102;DHT22;10210;52.284;9.892;2023-06-26T14:30:05;30.10;99.90
20102;DHT22;10210;52.284;9.892;2023-06-26T14:32:31;30.10;99.90
20102;DHT22;10210;52.284;9.892;2023-06-26T14:34:58;30.20;99.90
20102;DHT22;10210;52.284;9.892;2023-06-26T14:37:25;30.20;99.90
20102;DHT22;10210;52.284;9.892;2023-06-26T14:39:52;30.20;99.90
20102;DHT22;10210;52.284;9.892;2023-06-26T14:42:18;30.10;99.80
20102;DHT22;10210;52.284;9.892;2023-06-26T14:44:43;30.00;99.90
20102;DHT22;10210;52.284;9.892;2023-06-26T14:47:12;30.00;99.90
20102;DHT22;10210;52.284;9.892;2023-06-26T14:49:39;29.90;99.60
20102;DHT22;10210;52.284;9.892;2023-06-26T14:52:06;29.90;98.90
20102;DHT22;10210;52.284;9.892;2023-06-26T14:54:31;29.80;99.20
20102;DHT22;10210;52.284;9.892;2023-06-26T14:56:58;29.80;99.50
20102;DHT22;10210;52.284;9.892;2023-06-26T14:59:24;29.70;99.40
20102;DHT22;10210;52.284;9.892;2023-06-26T15:01:50;29.60;99.20
20102;DHT22;10210;52.284;9.892;2023-06-26T15:04:15;29.50;99.50
20102;DHT22;10210;52.284;9.892;2023-06-26T15:06:41;29.40;99.60
20102;DHT22;10210;52.284;9.892;2023-06-26T15:09:07;29.40;99.80
20102;DHT22;10210;52.284;9.892;2023-06-26T15:11:34;29.30;99.70
20102;DHT22;10210;52.284;9.892;2023-06-26T15:14:01;29.30;99.90
20102;DHT22;10210;52.284;9.892;2023-06-26T15:16:27;29.30;99.90
20102;DHT22;10210;52.284;9.892;2023-06-26T15:18:53;29.20;99.90
20102;DHT22;10210;52.284;9.892;2023-06-26T15:21:19;29.20;99.90
20102;DHT22;10210;52.284;9.892;2023-06-26T15:23:46;29.20;99.90
20102;DHT22;10210;52.284;9.892;2023-06-26T15:26:13;29.20;99.90
20102;DHT22;10210;52.284;9.892;2023-06-26T15:28:39;29.20;99.90
20102;DHT22;10210;52.284;9.892;2023-06-26T15:31:07;29.30;99.90
20102;DHT22;10210;52.284;9.892;2023-06-26T15:33:33;29.20;99.90
20102;DHT22;10210;52.284;9.892;2023-06-26T15:35:58;29.20;99.90
20102;DHT22;10210;52.284;9.892;2023-06-26T15:38:25;29.10;99.90
20102;DHT22;10210;52.284;9.892;2023-06-26T15:40:52;29.10;99.90
20102;DHT22;10210;52.284;9.892;2023-06-26T15:43:17;29.00;99.90
20102;DHT22;10210;52.284;9.892;2023-06-26T15:45:44;29.00;99.90
20102;DHT22;10210;52.284;9.892;2023-06-26T15:48:09;29.00;99.90
20102;DHT22;10210;52.284;9.892;2023-06-26T15:50:35;28.80;99.90